createdAt,value
2019-03-29T00:00:32.123Z,7.75
2019-03-29T00:03:00.999Z,7.05
2019-03-29T00:05:29.426Z,6.90
2019-03-29T00:07:57.865Z,6.35
2019-03-29T00:10:26.538Z,6.45
2019-03-29T00:12:54.991Z,5.70
2019-03-29T00:15:23.368Z,6.20
2019-03-29T00:17:51.881Z,5.40
2019-03-29T00:20:20.430Z,5.47
2019-03-29T00:22:48.871Z,5.67
2019-03-29T00:25:17.364Z,5.53
2019-03-29T00:27:45.807Z,5.50
2019-03-29T00:30:14.092Z,6.30
2019-03-29T00:32:42.575Z,5.47
2019-03-29T00:35:10.958Z,6.08
2019-03-29T00:37:52.547Z,6.95
2019-03-29T00:40:09.585Z,6.95
2019-03-29T00:42:37.941Z,6.50
2019-03-29T00:45:07.271Z,6.03
2019-03-29T00:47:35.725Z,5.90
2019-03-29T00:50:06.339Z,6.08
2019-03-29T00:52:35.386Z,5.85
2019-03-29T00:55:04.077Z,6.00
2019-03-29T00:57:32.544Z,6.50
2019-03-29T01:00:00.997Z,5.70
2019-03-29T01:02:29.452Z,5.78
2019-03-29T01:04:57.908Z,5.60
2019-03-29T01:07:26.372Z,5.67
2019-03-29T01:09:54.845Z,5.62
2019-03-29T01:12:23.274Z,6.25
2019-03-29T01:14:51.688Z,5.15
2019-03-29T01:17:20.312Z,5.35
2019-03-29T01:19:48.748Z,5.42
2019-03-29T01:22:17.046Z,4.80
2019-03-29T01:24:45.547Z,5.40
2019-03-29T01:27:13.903Z,5.55
2019-03-29T01:29:42.465Z,4.55
2019-03-29T01:32:10.913Z,5.72
2019-03-29T01:34:39.334Z,5.60
2019-03-29T01:37:07.918Z,5.25
2019-03-29T01:39:36.324Z,5.75
2019-03-29T01:42:04.815Z,6.15
2019-03-29T01:44:34.444Z,5.92
2019-03-29T01:47:03.900Z,5.67
2019-03-29T01:49:32.397Z,6.00
2019-03-29T01:52:06.345Z,5.90
2019-03-29T01:54:34.812Z,5.97
2019-03-29T01:57:03.300Z,5.95
2019-03-29T01:59:31.800Z,5.85
2019-03-29T02:02:00.141Z,5.20
2019-03-29T02:04:28.505Z,6.08
2019-03-29T02:06:56.952Z,6.05
2019-03-29T02:09:25.266Z,6.15
2019-03-29T02:11:53.649Z,5.75
2019-03-29T02:14:22.141Z,5.62
2019-03-29T02:16:50.573Z,5.65
2019-03-29T02:19:19.096Z,5.78
2019-03-29T02:21:47.456Z,5.90
2019-03-29T02:24:15.868Z,5.80
2019-03-29T02:26:44.327Z,6.42
2019-03-29T02:29:12.750Z,5.72
2019-03-29T02:31:42.314Z,5.80
2019-03-29T02:34:11.348Z,5.50
2019-03-29T02:36:39.706Z,5.72
2019-03-29T02:39:08.099Z,6.03
2019-03-29T02:41:36.641Z,5.72
2019-03-29T02:44:05.100Z,6.00
2019-03-29T02:46:33.508Z,5.60
2019-03-29T02:49:02.161Z,5.90
2019-03-29T02:51:31.623Z,5.33
2019-03-29T02:54:00.769Z,5.60
2019-03-29T02:56:29.305Z,5.87
2019-03-29T02:58:57.719Z,5.97
2019-03-29T03:01:26.188Z,6.17
2019-03-29T03:03:54.599Z,6.33
2019-03-29T03:06:23.021Z,6.42
2019-03-29T03:08:51.356Z,6.75
2019-03-29T03:11:19.794Z,6.40
2019-03-29T03:13:48.353Z,6.55
2019-03-29T03:16:16.841Z,6.10
2019-03-29T03:18:45.211Z,6.12
2019-03-29T03:21:13.723Z,6.22
2019-03-29T03:24:01.564Z,6.17
2019-03-29T03:26:30.049Z,6.85
2019-03-29T03:28:58.471Z,6.35
2019-03-29T03:31:26.901Z,6.20
2019-03-29T03:33:55.536Z,6.75
2019-03-29T03:36:24.004Z,5.40
2019-03-29T03:38:52.577Z,5.35
2019-03-29T03:41:20.988Z,5.78
2019-03-29T03:43:49.397Z,5.62
2019-03-29T03:46:17.929Z,5.90
2019-03-29T03:48:46.451Z,6.05
2019-03-29T03:51:14.880Z,5.60
2019-03-29T03:53:43.300Z,6.17
2019-03-29T03:56:11.927Z,5.33
2019-03-29T03:58:40.913Z,5.90
2019-03-29T04:01:09.353Z,6.25
2019-03-29T04:03:37.751Z,5.15
2019-03-29T04:06:06.269Z,6.55
2019-03-29T04:08:34.788Z,5.70
2019-03-29T04:11:03.294Z,5.62
2019-03-29T04:13:31.671Z,6.22
2019-03-29T04:16:00.195Z,5.12
2019-03-29T04:18:28.607Z,5.20
2019-03-29T04:20:57.073Z,6.35
2019-03-29T04:23:25.603Z,5.75
2019-03-29T04:25:54.057Z,5.47
2019-03-29T04:28:22.554Z,5.85
2019-03-29T04:30:50.978Z,5.90
2019-03-29T04:33:19.442Z,5.55
2019-03-29T04:35:47.790Z,6.10
2019-03-29T04:38:16.373Z,6.35
2019-03-29T04:40:44.792Z,6.25
2019-03-29T04:43:13.181Z,7.08
2019-03-29T04:45:41.663Z,6.60
2019-03-29T04:48:10.040Z,6.40
2019-03-29T04:50:38.426Z,5.85
2019-03-29T04:53:06.860Z,5.60
2019-03-29T04:55:35.318Z,5.42
2019-03-29T04:58:03.690Z,6.10
2019-03-29T05:00:32.132Z,6.45
2019-03-29T05:03:00.484Z,5.60
2019-03-29T05:05:28.936Z,5.42
2019-03-29T05:07:57.549Z,6.35
2019-03-29T05:10:25.941Z,6.42
2019-03-29T05:12:54.316Z,6.22
2019-03-29T05:15:22.758Z,6.37
2019-03-29T05:17:51.168Z,6.40
2019-03-29T05:20:19.534Z,6.37
2019-03-29T05:22:47.888Z,6.05
2019-03-29T05:25:16.346Z,6.55
2019-03-29T05:27:44.822Z,5.90
2019-03-29T05:30:13.326Z,6.90
2019-03-29T05:32:41.760Z,6.80
2019-03-29T05:35:10.230Z,6.62
2019-03-29T05:37:38.770Z,6.55
2019-03-29T05:40:07.222Z,6.30
2019-03-29T05:42:35.588Z,5.62
2019-03-29T05:45:06.712Z,6.33
2019-03-29T05:47:35.155Z,6.58
2019-03-29T05:50:05.490Z,7.03
2019-03-29T05:52:34.018Z,6.78
2019-03-29T05:55:02.631Z,6.92
2019-03-29T05:57:31.054Z,7.62
2019-03-29T05:59:59.485Z,7.08
2019-03-29T06:02:27.836Z,7.83
2019-03-29T06:04:56.241Z,7.45
2019-03-29T06:07:24.778Z,6.80
2019-03-29T06:09:53.175Z,7.42
2019-03-29T06:12:21.576Z,6.92
2019-03-29T06:14:50.030Z,7.67
2019-03-29T06:17:18.477Z,7.30
2019-03-29T06:19:46.834Z,6.97
2019-03-29T06:22:15.184Z,8.10
2019-03-29T06:24:43.605Z,7.25
2019-03-29T06:27:11.964Z,8.20
2019-03-29T06:29:40.461Z,8.28
2019-03-29T06:32:08.817Z,8.68
2019-03-29T06:34:37.189Z,8.43
2019-03-29T06:37:06.089Z,9.63
2019-03-29T06:39:34.602Z,9.48
2019-03-29T06:42:02.989Z,10.40
2019-03-29T06:44:31.512Z,10.35
2019-03-29T06:46:59.905Z,12.10
2019-03-29T06:49:28.332Z,11.03
2019-03-29T06:51:56.761Z,11.22
2019-03-29T06:54:25.048Z,13.22
2019-03-29T06:56:53.422Z,12.13
2019-03-29T06:59:22.086Z,13.25
2019-03-29T07:01:50.485Z,12.75
2019-03-29T07:04:18.965Z,13.03
2019-03-29T07:06:47.428Z,15.05
2019-03-29T07:09:15.909Z,12.73
2019-03-29T07:11:44.261Z,14.05
2019-03-29T07:14:12.838Z,17.15
2019-03-29T07:16:41.208Z,16.50
2019-03-29T07:19:09.669Z,18.00
2019-03-29T07:21:38.296Z,18.23
2019-03-29T07:24:06.692Z,17.65
2019-03-29T07:26:35.114Z,17.37
2019-03-29T07:29:03.642Z,18.87
2019-03-29T07:31:32.132Z,20.80
2019-03-29T07:34:00.541Z,18.90
2019-03-29T07:36:29.153Z,20.02
2019-03-29T07:38:57.581Z,18.40
2019-03-29T07:41:32.282Z,22.10
2019-03-29T07:43:56.114Z,21.70
2019-03-29T07:46:24.584Z,23.27
2019-03-29T07:48:53.136Z,21.45
2019-03-29T07:51:21.666Z,21.20
2019-03-29T07:53:50.032Z,22.75
2019-03-29T07:56:18.461Z,24.32
2019-03-29T07:58:46.964Z,20.95
2019-03-29T08:01:15.262Z,20.57
2019-03-29T08:03:43.742Z,21.10
2019-03-29T08:06:12.378Z,23.95
2019-03-29T08:08:40.733Z,21.15
2019-03-29T08:11:09.173Z,20.23
2019-03-29T08:13:38.713Z,22.13
2019-03-29T08:16:07.114Z,22.37
2019-03-29T08:18:35.593Z,20.37
2019-03-29T08:21:04.887Z,20.27
2019-03-29T08:23:33.319Z,21.12
2019-03-29T08:26:01.679Z,18.75
2019-03-29T08:28:30.140Z,19.45
2019-03-29T08:30:58.593Z,17.62
2019-03-29T08:33:27.101Z,17.95
2019-03-29T08:35:55.537Z,16.93
2019-03-29T08:38:24.108Z,16.02
2019-03-29T08:40:52.528Z,14.95
2019-03-29T08:43:21.152Z,15.80
2019-03-29T08:45:49.854Z,15.65
2019-03-29T08:48:18.320Z,14.38
2019-03-29T08:50:46.865Z,14.05
2019-03-29T08:53:15.329Z,11.10
2019-03-29T08:55:45.991Z,12.68
2019-03-29T08:58:13.957Z,10.82
2019-03-29T09:00:42.316Z,9.88
2019-03-29T09:03:10.628Z,11.50
2019-03-29T09:05:39.411Z,13.38
2019-03-29T09:08:08.039Z,12.15
2019-03-29T09:10:36.504Z,11.70
2019-03-29T09:13:05.069Z,13.03
2019-03-29T09:15:33.500Z,11.73
2019-03-29T09:18:02.009Z,10.80
2019-03-29T09:20:34.087Z,10.00
2019-03-29T09:23:00.657Z,11.03
2019-03-29T09:25:29.125Z,10.30
2019-03-29T09:27:57.582Z,9.03
2019-03-29T09:30:26.020Z,10.23
2019-03-29T09:32:54.389Z,11.08
2019-03-29T09:35:22.821Z,9.33
2019-03-29T09:37:51.352Z,10.13
2019-03-29T09:40:19.776Z,8.88
2019-03-29T09:42:55.834Z,9.35
2019-03-29T09:45:19.377Z,7.50
2019-03-29T09:47:47.868Z,9.18
2019-03-29T09:50:16.357Z,10.45
2019-03-29T09:52:44.724Z,8.70
2019-03-29T09:55:13.141Z,10.63
2019-03-29T09:57:41.621Z,9.58
2019-03-29T10:00:19.093Z,9.35
2019-03-29T10:02:40.413Z,8.73
2019-03-29T10:05:08.885Z,9.40
2019-03-29T10:07:37.305Z,9.60
2019-03-29T10:10:06.059Z,9.25
2019-03-29T10:12:43.172Z,8.20
2019-03-29T10:15:06.341Z,10.10
2019-03-29T10:17:34.791Z,7.60
2019-03-29T10:20:03.673Z,9.88
2019-03-29T10:22:32.180Z,9.20
2019-03-29T10:25:02.518Z,8.83
2019-03-29T10:27:30.794Z,8.60
2019-03-29T10:29:59.232Z,8.83
2019-03-29T10:32:27.696Z,8.80
2019-03-29T10:34:56.160Z,8.18
2019-03-29T10:37:24.623Z,8.80
2019-03-29T10:39:53.166Z,9.53
2019-03-29T10:42:21.712Z,9.15
2019-03-29T10:44:50.326Z,9.48
2019-03-29T10:47:18.810Z,8.43
2019-03-29T10:49:47.236Z,7.92
2019-03-29T10:52:15.669Z,8.68
2019-03-29T10:54:44.987Z,7.95
2019-03-29T10:57:13.606Z,8.53
2019-03-29T10:59:41.985Z,8.18
2019-03-29T11:02:10.677Z,8.80
2019-03-29T11:04:39.172Z,8.93
2019-03-29T11:07:07.641Z,7.87
2019-03-29T11:09:37.208Z,8.43
2019-03-29T11:12:05.728Z,8.80
2019-03-29T11:14:34.093Z,9.95
2019-03-29T11:17:02.578Z,9.55
2019-03-29T11:19:31.131Z,9.83
2019-03-29T11:21:59.586Z,7.78
2019-03-29T11:24:28.065Z,8.30
2019-03-29T11:26:56.476Z,6.67
2019-03-29T11:29:24.945Z,8.10
2019-03-29T11:31:53.253Z,7.20
2019-03-29T11:34:21.677Z,8.90
2019-03-29T11:36:52.557Z,8.20
2019-03-29T11:39:20.138Z,9.55
2019-03-29T11:41:48.691Z,7.72
2019-03-29T11:44:17.470Z,8.10
2019-03-29T11:46:45.982Z,7.28
2019-03-29T11:49:14.378Z,7.60
2019-03-29T11:51:42.870Z,7.20
2019-03-29T11:54:11.224Z,7.53
2019-03-29T11:56:39.721Z,6.20
2019-03-29T11:59:08.132Z,7.08
2019-03-29T12:01:36.566Z,7.42
2019-03-29T12:04:05.085Z,7.08
2019-03-29T12:06:33.540Z,6.72
2019-03-29T12:09:01.998Z,7.85
2019-03-29T12:11:30.435Z,8.45
2019-03-29T12:13:58.917Z,6.40
2019-03-29T12:16:27.354Z,7.45
2019-03-29T12:18:55.906Z,6.78
2019-03-29T12:21:24.337Z,6.60
2019-03-29T12:23:52.625Z,6.65
2019-03-29T12:26:21.114Z,6.50
2019-03-29T12:28:49.545Z,7.17
2019-03-29T12:31:18.017Z,6.33
2019-03-29T12:33:46.595Z,6.10
2019-03-29T12:36:15.099Z,6.35
2019-03-29T12:38:43.441Z,6.35
2019-03-29T12:41:11.844Z,7.80
2019-03-29T12:43:40.292Z,6.60
2019-03-29T12:46:08.969Z,6.22
2019-03-29T12:48:37.402Z,5.37
2019-03-29T12:51:05.867Z,5.67
2019-03-29T12:53:34.326Z,6.15
2019-03-29T12:56:02.848Z,8.88
2019-03-29T12:58:31.109Z,5.85
2019-03-29T13:00:59.752Z,5.92
2019-03-29T13:03:28.302Z,7.08
2019-03-29T13:05:56.649Z,5.67
2019-03-29T13:08:25.252Z,5.97
2019-03-29T13:10:53.649Z,6.62
2019-03-29T13:13:22.033Z,5.70
2019-03-29T13:15:50.532Z,6.90
2019-03-29T13:18:18.973Z,7.95
2019-03-29T13:20:47.332Z,8.78
2019-03-29T13:23:15.829Z,7.17
2019-03-29T13:25:44.319Z,6.78
2019-03-29T13:28:12.699Z,7.17
2019-03-29T13:30:41.206Z,7.45
2019-03-29T13:33:09.612Z,6.83
2019-03-29T13:35:38.056Z,6.97
2019-03-29T13:38:06.622Z,7.28
2019-03-29T13:40:35.071Z,7.00
2019-03-29T13:43:03.504Z,7.75
2019-03-29T13:45:31.916Z,8.33
2019-03-29T13:48:00.441Z,7.75
2019-03-29T13:50:28.939Z,7.92
2019-03-29T13:52:57.329Z,7.83
2019-03-29T13:55:25.758Z,8.70
2019-03-29T13:57:54.281Z,7.42
2019-03-29T14:00:22.729Z,8.35
2019-03-29T14:02:51.196Z,8.18
2019-03-29T14:05:19.731Z,8.85
2019-03-29T14:07:48.236Z,8.80
2019-03-29T14:10:16.711Z,8.88
2019-03-29T14:12:45.161Z,9.78
2019-03-29T14:15:13.622Z,9.23
2019-03-29T14:17:42.010Z,9.28
2019-03-29T14:20:11.700Z,9.48
2019-03-29T14:22:40.070Z,9.65
2019-03-29T14:25:08.616Z,10.13
2019-03-29T14:27:37.196Z,8.50
2019-03-29T14:30:06.518Z,9.58
2019-03-29T14:32:34.884Z,9.45
2019-03-29T14:35:05.031Z,8.98
2019-03-29T14:37:33.454Z,9.05
2019-03-29T14:40:01.919Z,8.78
2019-03-29T14:42:30.469Z,9.20
2019-03-29T14:44:58.821Z,8.75
2019-03-29T14:47:39.679Z,8.33
2019-03-29T14:49:57.604Z,9.30
2019-03-29T14:52:25.965Z,9.83
2019-03-29T14:54:54.473Z,9.28
2019-03-29T14:57:22.869Z,8.58
2019-03-29T14:59:51.406Z,8.45
2019-03-29T15:02:22.169Z,9.05
2019-03-29T15:04:49.958Z,9.90
2019-03-29T15:07:18.468Z,8.80
2019-03-29T15:09:47.010Z,9.55
2019-03-29T15:12:15.434Z,9.55
2019-03-29T15:14:43.934Z,10.00
2019-03-29T15:17:12.378Z,9.08
2019-03-29T15:19:40.835Z,9.00
2019-03-29T15:22:09.250Z,9.03
2019-03-29T15:24:37.731Z,9.63
2019-03-29T15:27:06.179Z,8.53
2019-03-29T15:29:34.593Z,8.90
2019-03-29T15:32:03.159Z,9.55
2019-03-29T15:34:31.620Z,9.65
2019-03-29T15:37:00.091Z,8.88
2019-03-29T15:39:28.412Z,9.75
2019-03-29T15:41:56.928Z,8.93
2019-03-29T15:44:25.413Z,8.65
2019-03-29T15:46:53.856Z,8.83
2019-03-29T15:49:55.090Z,8.23
2019-03-29T15:52:11.863Z,9.30
2019-03-29T15:54:40.239Z,9.95
2019-03-29T15:57:08.819Z,8.95
2019-03-29T15:59:37.283Z,8.58
2019-03-29T16:02:05.725Z,8.50
2019-03-29T16:04:34.153Z,8.18
2019-03-29T16:07:02.654Z,9.48
2019-03-29T16:09:31.197Z,9.00
2019-03-29T16:11:59.706Z,9.50
2019-03-29T16:14:28.236Z,8.40
2019-03-29T16:16:57.953Z,9.18
2019-03-29T16:19:26.429Z,8.48
2019-03-29T16:21:54.952Z,8.75
2019-03-29T16:24:23.471Z,9.23
2019-03-29T16:26:51.891Z,9.03
2019-03-29T16:29:20.336Z,9.18
2019-03-29T16:31:48.872Z,8.70
2019-03-29T16:34:17.389Z,8.63
2019-03-29T16:36:46.997Z,9.58
2019-03-29T16:39:15.490Z,8.65
2019-03-29T16:41:43.934Z,9.53
2019-03-29T16:44:12.486Z,8.60
2019-03-29T16:46:40.909Z,9.98
2019-03-29T16:49:09.321Z,9.50
2019-03-29T16:51:37.931Z,9.33
2019-03-29T16:54:06.571Z,8.78
2019-03-29T16:56:35.057Z,9.40
2019-03-29T16:59:03.623Z,8.80
2019-03-29T17:01:32.102Z,10.60
2019-03-29T17:04:00.549Z,9.85
2019-03-29T17:06:29.096Z,9.10
2019-03-29T17:08:57.588Z,10.00
2019-03-29T17:11:26.040Z,8.75
2019-03-29T17:13:54.523Z,9.00
2019-03-29T17:16:30.230Z,8.58
2019-03-29T17:18:53.030Z,8.50
2019-03-29T17:21:21.553Z,9.43
2019-03-29T17:23:52.515Z,8.58
2019-03-29T17:26:21.073Z,8.10
2019-03-29T17:28:49.569Z,8.93
2019-03-29T17:31:18.459Z,9.40
2019-03-29T17:33:46.854Z,8.40
2019-03-29T17:36:15.402Z,8.83
2019-03-29T17:38:43.863Z,9.35
2019-03-29T17:41:12.389Z,7.95
2019-03-29T17:43:40.851Z,8.85
2019-03-29T17:46:16.016Z,9.28
2019-03-29T17:48:39.481Z,9.48
2019-03-29T17:51:07.895Z,9.18
2019-03-29T17:53:36.490Z,9.20
2019-03-29T17:56:04.926Z,9.53
2019-03-29T17:58:33.323Z,9.65
2019-03-29T18:01:01.796Z,9.53
2019-03-29T18:03:30.150Z,10.08
2019-03-29T18:05:58.637Z,8.08
2019-03-29T18:08:27.178Z,9.13
2019-03-29T18:10:55.680Z,8.30
2019-03-29T18:13:24.124Z,9.33
2019-03-29T18:15:52.477Z,10.23
2019-03-29T18:18:20.910Z,9.68
2019-03-29T18:20:49.302Z,8.90
2019-03-29T18:23:17.798Z,9.63
2019-03-29T18:25:46.295Z,9.38
2019-03-29T18:28:14.754Z,10.43
2019-03-29T18:30:43.262Z,9.28
2019-03-29T18:33:11.688Z,9.30
2019-03-29T18:35:40.133Z,10.10
2019-03-29T18:38:08.689Z,10.95
2019-03-29T18:40:37.281Z,10.32
2019-03-29T18:43:05.804Z,11.75
2019-03-29T18:45:34.256Z,12.18
2019-03-29T18:48:02.718Z,13.22
2019-03-29T18:50:31.220Z,11.70
2019-03-29T18:52:59.701Z,12.50
2019-03-29T18:55:28.176Z,11.97
2019-03-29T18:57:56.703Z,11.50
2019-03-29T19:00:30.012Z,11.12
2019-03-29T19:02:58.516Z,11.43
2019-03-29T19:05:27.362Z,10.48
2019-03-29T19:07:55.819Z,11.33
2019-03-29T19:10:24.348Z,10.80
2019-03-29T19:12:52.767Z,10.85
2019-03-29T19:15:21.166Z,10.45
2019-03-29T19:17:50.570Z,11.38
2019-03-29T19:20:27.202Z,11.93
2019-03-29T19:22:49.155Z,11.80
2019-03-29T19:25:17.701Z,12.00
2019-03-29T19:27:46.210Z,10.08
2019-03-29T19:30:14.644Z,11.55
2019-03-29T19:32:43.136Z,11.50
2019-03-29T19:35:11.545Z,11.25
2019-03-29T19:37:40.019Z,10.93
2019-03-29T19:40:08.497Z,11.43
2019-03-29T19:42:37.093Z,11.35
2019-03-29T19:45:07.227Z,10.38
2019-03-29T19:47:35.697Z,12.37
2019-03-29T19:50:04.963Z,10.50
2019-03-29T19:52:33.416Z,11.35
2019-03-29T19:55:02.186Z,10.75
2019-03-29T19:57:30.708Z,10.55
2019-03-29T19:59:59.190Z,10.20
2019-03-29T20:02:27.686Z,11.97
2019-03-29T20:04:56.316Z,12.10
2019-03-29T20:07:24.808Z,11.28
2019-03-29T20:09:53.357Z,11.85
2019-03-29T20:12:24.969Z,11.95
2019-03-29T20:14:52.090Z,11.93
2019-03-29T20:17:27.500Z,11.43
2019-03-29T20:19:50.892Z,11.57
2019-03-29T20:22:19.515Z,11.90
2019-03-29T20:24:47.968Z,12.20
2019-03-29T20:27:16.427Z,11.95
2019-03-29T20:29:44.918Z,13.50
2019-03-29T20:32:13.421Z,13.45
2019-03-29T20:34:41.858Z,14.47
2019-03-29T20:37:10.266Z,14.15
2019-03-29T20:39:38.836Z,15.15
2019-03-29T20:42:07.431Z,13.53
2019-03-29T20:44:35.814Z,13.55
2019-03-29T20:47:04.362Z,14.95
2019-03-29T20:49:32.867Z,14.93
2019-03-29T20:52:01.304Z,13.20
2019-03-29T20:54:30.033Z,13.50
2019-03-29T20:56:58.404Z,13.48
2019-03-29T20:59:26.831Z,12.65
2019-03-29T21:01:55.299Z,13.13
2019-03-29T21:04:23.748Z,13.22
2019-03-29T21:06:52.177Z,11.80
2019-03-29T21:09:20.818Z,11.18
2019-03-29T21:11:49.439Z,10.90
2019-03-29T21:14:18.011Z,10.88
2019-03-29T21:16:46.677Z,10.60
2019-03-29T21:19:15.430Z,11.10
2019-03-29T21:21:43.893Z,10.85
2019-03-29T21:24:12.482Z,11.30
2019-03-29T21:26:40.996Z,10.30
2019-03-29T21:29:09.653Z,10.03
2019-03-29T21:31:40.103Z,9.60
2019-03-29T21:34:08.457Z,9.70
2019-03-29T21:36:36.802Z,9.53
2019-03-29T21:39:08.137Z,9.70
2019-03-29T21:41:40.126Z,7.83
2019-03-29T21:44:08.312Z,9.43
2019-03-29T21:46:39.118Z,9.50
2019-03-29T21:49:08.951Z,9.13
2019-03-29T21:51:37.327Z,8.85
2019-03-29T21:54:05.956Z,8.55
2019-03-29T21:56:35.121Z,8.40
2019-03-29T21:59:05.191Z,8.73
2019-03-29T22:01:33.796Z,8.78
2019-03-29T22:04:02.359Z,8.05
2019-03-29T22:06:30.797Z,9.10
2019-03-29T22:08:59.333Z,9.08
2019-03-29T22:11:27.847Z,8.25
2019-03-29T22:13:56.189Z,9.13
2019-03-29T22:16:24.655Z,9.03
2019-03-29T22:18:53.200Z,8.28
2019-03-29T22:21:21.681Z,8.73
2019-03-29T22:23:50.183Z,8.83
2019-03-29T22:26:18.651Z,8.13
2019-03-29T22:28:47.199Z,8.43
2019-03-29T22:31:15.779Z,8.70
2019-03-29T22:33:44.288Z,9.13
2019-03-29T22:36:12.758Z,8.93
2019-03-29T22:38:41.252Z,8.85
2019-03-29T22:41:09.653Z,9.18
2019-03-29T22:43:38.131Z,8.88
2019-03-29T22:46:06.546Z,8.88
2019-03-29T22:48:34.916Z,9.38
2019-03-29T22:51:03.417Z,8.75
2019-03-29T22:53:31.809Z,8.88
2019-03-29T22:56:00.247Z,9.10
2019-03-29T22:58:28.789Z,8.70
2019-03-29T23:00:57.258Z,9.25
2019-03-29T23:03:25.666Z,8.88
2019-03-29T23:05:54.168Z,8.58
2019-03-29T23:08:22.593Z,8.68
2019-03-29T23:10:50.996Z,9.18
2019-03-29T23:13:19.286Z,9.08
2019-03-29T23:15:47.725Z,8.98
2019-03-29T23:18:16.247Z,8.95
2019-03-29T23:20:44.621Z,8.73
2019-03-29T23:23:13.015Z,9.08
2019-03-29T23:25:41.551Z,9.08
2019-03-29T23:28:09.953Z,9.08
2019-03-29T23:30:38.798Z,9.28
2019-03-29T23:33:07.288Z,8.68
2019-03-29T23:35:35.653Z,9.25
2019-03-29T23:38:04.144Z,9.13
2019-03-29T23:40:32.538Z,9.08
2019-03-29T23:43:00.937Z,8.78
2019-03-29T23:45:29.420Z,8.60
2019-03-29T23:47:57.886Z,8.20
2019-03-29T23:50:26.308Z,9.45
2019-03-29T23:52:54.770Z,9.13
2019-03-29T23:55:23.202Z,8.48
2019-03-29T23:57:51.567Z,8.45
